Time;durP1;ratioP1;P1;durP2;ratioP2;P2;SDS_P1;SDS_P2;PMS_P1;PMS_P2;Temp;Humidity;BMP_temperature;BMP_pressure;BME280_temperature;BME280_humidity;BME280_pressure;Samples;Min_cycle;Max_cycle;Signal;HPM_P1;HPM_P2
2023/08/03 00:01:24;;;;;;;7.63;2.67;;;;;;;;;;5070600;28;20045;-64
2023/08/03 00:03:51;;;;;;;8.33;3.30;;;;;;;;;;5069738;28;20131;-64
2023/08/03 00:06:16;;;;;;;9.27;3.50;;;;;;;;;;5070521;28;20072;-64
2023/08/03 00:08:42;;;;;;;9.50;3.60;;;;;;;;;;5070686;28;20123;-63
2023/08/03 00:11:08;;;;;;;13.20;3.53;;;;;;;;;;5070413;28;20056;-64
2023/08/03 00:13:34;;;;;;;11.43;3.50;;;;;;;;;;5069980;28;20075;-64
2023/08/03 00:16:01;;;;;;;8.33;3.67;;;;;;;;;;5070644;28;20521;-64
2023/08/03 00:18:27;;;;;;;8.60;3.77;;;;;;;;;;5070188;28;20048;-64
2023/08/03 00:20:53;;;;;;;10.73;3.87;;;;;;;;;;5070194;28;20048;-64
2023/08/03 00:23:19;;;;;;;11.00;3.73;;;;;;;;;;5069837;28;20041;-64
2023/08/03 00:25:45;;;;;;;11.87;6.07;;;;;;;;;;5069931;28;20800;-64
2023/08/03 00:28:11;;;;;;;8.60;3.80;;;;;;;;;;5070006;28;20051;-64
2023/08/03 00:30:37;;;;;;;11.73;4.30;;;;;;;;;;5070238;28;20098;-64
2023/08/03 00:33:03;;;;;;;9.20;4.23;;;;;;;;;;5070045;28;20124;-64
2023/08/03 00:35:29;;;;;;;12.10;4.93;;;;;;;;;;5069335;28;20460;-64
2023/08/03 00:37:55;;;;;;;10.93;4.57;;;;;;;;;;5069884;28;20044;-64
2023/08/03 00:40:21;;;;;;;9.63;4.20;;;;;;;;;;5069756;28;20060;-63
2023/08/03 00:42:47;;;;;;;13.50;4.67;;;;;;;;;;5069304;28;20590;-63
2023/08/03 00:45:13;;;;;;;8.57;3.67;;;;;;;;;;5069584;28;20060;-63
2023/08/03 00:47:40;;;;;;;8.63;3.80;;;;;;;;;;5069751;28;20051;-63
2023/08/03 00:50:06;;;;;;;5.57;3.43;;;;;;;;;;5069605;28;20076;-63
2023/08/03 00:52:34;;;;;;;6.30;3.80;;;;;;;;;;5069207;28;20052;-63
2023/08/03 00:55:00;;;;;;;14.20;4.97;;;;;;;;;;5069614;28;20052;-63
2023/08/03 00:57:27;;;;;;;10.30;3.93;;;;;;;;;;5069220;28;20395;-63
2023/08/03 00:59:53;;;;;;;10.43;3.87;;;;;;;;;;5069636;28;20044;-64
2023/08/03 01:02:19;;;;;;;10.93;3.93;;;;;;;;;;5067932;28;20044;-63
2023/08/03 01:04:45;;;;;;;10.27;4.27;;;;;;;;;;5069355;28;20128;-63
2023/08/03 01:07:11;;;;;;;7.10;3.37;;;;;;;;;;5069510;28;20048;-63
2023/08/03 01:09:37;;;;;;;9.00;3.83;;;;;;;;;;5069402;28;20124;-63
2023/08/03 01:12:03;;;;;;;8.30;3.60;;;;;;;;;;5067987;28;20037;-63
2023/08/03 01:14:29;;;;;;;11.53;4.00;;;;;;;;;;5068222;28;20139;-63
2023/08/03 01:16:55;;;;;;;8.50;3.50;;;;;;;;;;5069113;28;20047;-63
2023/08/03 01:19:22;;;;;;;5.53;3.30;;;;;;;;;;5068864;28;20040;-63
2023/08/03 01:21:48;;;;;;;4.50;3.00;;;;;;;;;;5069218;28;20040;-63
2023/08/03 01:24:14;;;;;;;5.70;3.10;;;;;;;;;;5068833;28;20063;-63
2023/08/03 01:26:42;;;;;;;5.07;2.97;;;;;;;;;;5068562;28;20040;-63
2023/08/03 01:29:08;;;;;;;8.13;3.20;;;;;;;;;;5068722;28;20055;-64
2023/08/03 01:31:34;;;;;;;8.87;3.70;;;;;;;;;;5068939;28;20575;-64
2023/08/03 01:34:01;;;;;;;3.70;2.70;;;;;;;;;;5068883;28;20059;-64
2023/08/03 01:36:27;;;;;;;8.63;2.83;;;;;;;;;;5068945;28;20040;-63
2023/08/03 01:38:54;;;;;;;6.90;3.63;;;;;;;;;;5068409;28;20091;-63
2023/08/03 01:41:20;;;;;;;6.77;3.27;;;;;;;;;;5068603;28;20056;-63
2023/08/03 01:43:46;;;;;;;6.93;2.93;;;;;;;;;;5068794;28;20071;-64
2023/08/03 01:46:12;;;;;;;6.20;3.80;;;;;;;;;;5068540;28;20506;-64
2023/08/03 01:48:38;;;;;;;7.63;3.40;;;;;;;;;;5068276;28;20044;-63
2023/08/03 01:51:04;;;;;;;7.13;3.93;;;;;;;;;;5068412;28;20047;-64
2023/08/03 01:53:30;;;;;;;7.43;3.57;;;;;;;;;;5068039;28;20052;-64
2023/08/03 01:55:56;;;;;;;5.53;3.70;;;;;;;;;;5068689;28;20515;-63
2023/08/03 01:58:22;;;;;;;5.13;3.87;;;;;;;;;;5068135;28;20053;-64
2023/08/03 02:00:48;;;;;;;6.80;3.70;;;;;;;;;;5068303;28;20498;-63
2023/08/03 02:03:13;;;;;;;5.70;3.40;;;;;;;;;;5068583;28;20102;-63
2023/08/03 02:05:39;;;;;;;7.23;4.60;;;;;;;;;;5068348;28;20486;-63
2023/08/03 02:08:05;;;;;;;7.80;3.83;;;;;;;;;;5068425;28;20093;-64
2023/08/03 02:10:31;;;;;;;9.33;4.53;;;;;;;;;;5068458;28;20040;-63
2023/08/03 02:12:58;;;;;;;10.17;5.27;;;;;;;;;;5067825;28;20101;-63
2023/08/03 02:15:24;;;;;;;8.40;5.13;;;;;;;;;;5066945;28;20075;-63
2023/08/03 02:17:50;;;;;;;11.93;5.50;;;;;;;;;;5068295;28;20045;-63
2023/08/03 02:20:16;;;;;;;11.33;5.60;;;;;;;;;;5068149;28;20060;-63
2023/08/03 02:22:43;;;;;;;15.37;6.80;;;;;;;;;;5067665;28;20494;-63
2023/08/03 02:25:09;;;;;;;13.17;6.13;;;;;;;;;;5067899;28;20417;-63
2023/08/03 02:27:35;;;;;;;11.67;6.33;;;;;;;;;;5068162;28;20084;-63
2023/08/03 02:30:01;;;;;;;9.90;5.80;;;;;;;;;;5068371;28;20067;-63
2023/08/03 02:32:27;;;;;;;14.73;7.23;;;;;;;;;;5067476;28;20052;-63
2023/08/03 02:34:54;;;;;;;13.53;7.67;;;;;;;;;;5067851;28;20091;-63
2023/08/03 02:37:20;;;;;;;15.77;7.00;;;;;;;;;;5068207;28;20550;-63
2023/08/03 02:39:46;;;;;;;14.03;7.73;;;;;;;;;;5068029;28;20045;-63
2023/08/03 02:42:12;;;;;;;18.07;8.33;;;;;;;;;;5067183;28;20036;-64
2023/08/03 02:44:37;;;;;;;15.77;8.33;;;;;;;;;;5068035;28;20049;-63
2023/08/03 02:47:04;;;;;;;15.73;8.30;;;;;;;;;;5067926;28;20056;-63
2023/08/03 02:49:30;;;;;;;16.67;8.90;;;;;;;;;;5067768;28;20052;-63
2023/08/03 02:51:55;;;;;;;15.47;9.00;;;;;;;;;;5067758;28;20086;-63
2023/08/03 02:54:21;;;;;;;22.03;9.20;;;;;;;;;;5068129;28;20047;-63
2023/08/03 02:56:47;;;;;;;17.67;9.23;;;;;;;;;;5067943;28;20513;-63
2023/08/03 02:59:18;;;;;;;15.80;8.53;;;;;;;;;;5067217;28;20052;-63
2023/08/03 03:01:44;;;;;;;19.87;9.70;;;;;;;;;;5067707;28;20044;-63
2023/08/03 03:04:10;;;;;;;25.20;8.73;;;;;;;;;;5067906;28;20048;-63
2023/08/03 03:06:38;;;;;;;26.77;10.27;;;;;;;;;;5068003;28;20066;-63
2023/08/03 03:09:04;;;;;;;21.60;8.90;;;;;;;;;;5067097;28;20048;-63
2023/08/03 03:11:30;;;;;;;20.93;8.73;;;;;;;;;;5067789;28;20094;-63
2023/08/03 03:13:56;;;;;;;17.53;8.30;;;;;;;;;;5067663;28;20433;-63
2023/08/03 03:16:25;;;;;;;20.47;7.50;;;;;;;;;;5067405;28;20076;-63
2023/08/03 03:18:51;;;;;;;19.43;7.10;;;;;;;;;;5067810;28;20080;-63
2023/08/03 03:21:17;;;;;;;15.87;6.37;;;;;;;;;;5067560;28;20097;-63
2023/08/03 03:23:43;;;;;;;22.17;8.10;;;;;;;;;;5067610;28;20044;-63
2023/08/03 03:26:09;;;;;;;16.60;7.13;;;;;;;;;;5067736;28;20041;-63
2023/08/03 03:28:35;;;;;;;22.37;6.40;;;;;;;;;;5067964;28;20044;-63
2023/08/03 03:31:01;;;;;;;14.87;5.33;;;;;;;;;;5067208;28;20045;-63
2023/08/03 03:33:27;;;;;;;19.67;6.33;;;;;;;;;;5066976;28;20483;-63
2023/08/03 03:35:53;;;;;;;22.10;6.53;;;;;;;;;;5067618;28;20044;-63
2023/08/03 03:38:19;;;;;;;18.30;5.50;;;;;;;;;;5070104;28;20083;-63
2023/08/03 03:40:45;;;;;;;20.03;7.37;;;;;;;;;;5070820;28;20487;-63
2023/08/03 03:43:11;;;;;;;17.40;6.00;;;;;;;;;;5070880;28;20040;-63
2023/08/03 03:45:37;;;;;;;19.83;5.97;;;;;;;;;;5070788;28;20056;-63
2023/08/03 03:48:03;;;;;;;24.17;6.60;;;;;;;;;;5070997;28;20037;-63
2023/08/03 03:50:29;;;;;;;18.83;5.53;;;;;;;;;;5070543;28;20067;-63
2023/08/03 03:52:55;;;;;;;16.07;6.27;;;;;;;;;;5070932;28;20494;-63
2023/08/03 03:55:21;;;;;;;25.17;5.70;;;;;;;;;;5070680;28;20098;-63
2023/08/03 03:57:47;;;;;;;16.33;5.03;;;;;;;;;;5070409;28;20045;-63
2023/08/03 04:00:13;;;;;;;16.80;5.20;;;;;;;;;;5070389;28;20041;-63
2023/08/03 04:02:39;;;;;;;17.00;4.90;;;;;;;;;;5070740;28;20566;-63
2023/08/03 04:05:06;;;;;;;14.93;4.70;;;;;;;;;;5070062;28;20045;-63
2023/08/03 04:07:32;;;;;;;24.10;5.83;;;;;;;;;;5070693;28;20049;-63
2023/08/03 04:09:58;;;;;;;21.40;4.77;;;;;;;;;;5070729;28;20560;-63
2023/08/03 04:12:24;;;;;;;13.10;4.30;;;;;;;;;;5070253;28;20099;-62
2023/08/03 04:14:50;;;;;;;19.87;5.53;;;;;;;;;;5070420;28;20076;-63
2023/08/03 04:17:16;;;;;;;17.80;5.17;;;;;;;;;;5070468;28;20601;-63
2023/08/03 04:19:42;;;;;;;19.20;5.60;;;;;;;;;;5069600;28;20395;-63
2023/08/03 04:22:08;;;;;;;18.57;5.43;;;;;;;;;;5069991;28;20091;-63
2023/08/03 04:24:34;;;;;;;22.57;6.00;;;;;;;;;;5070240;28;20393;-63
2023/08/03 04:27:00;;;;;;;25.20;6.50;;;;;;;;;;5069764;28;20061;-63
2023/08/03 04:29:26;;;;;;;18.23;6.20;;;;;;;;;;5069879;28;20128;-63
2023/08/03 04:31:52;;;;;;;27.60;7.67;;;;;;;;;;5069889;28;20044;-64
2023/08/03 04:34:18;;;;;;;25.57;8.50;;;;;;;;;;5069292;28;20094;-63
2023/08/03 04:36:46;;;;;;;21.10;7.03;;;;;;;;;;5069739;28;20502;-63
2023/08/03 04:39:12;;;;;;;27.40;8.00;;;;;;;;;;5069693;28;20102;-63
2023/08/03 04:41:38;;;;;;;25.30;8.53;;;;;;;;;;5069642;28;20109;-63
2023/08/03 04:44:04;;;;;;;27.83;8.90;;;;;;;;;;5069154;28;20060;-63
2023/08/03 04:46:30;;;;;;;21.43;7.97;;;;;;;;;;5069488;28;20056;-63
2023/08/03 04:48:56;;;;;;;23.83;7.67;;;;;;;;;;5068260;28;20509;-63
2023/08/03 04:51:22;;;;;;;19.03;8.20;;;;;;;;;;5069100;28;20127;-63
2023/08/03 04:53:48;;;;;;;19.90;7.60;;;;;;;;;;5069587;28;20136;-63
2023/08/03 04:56:14;;;;;;;20.87;8.43;;;;;;;;;;5069158;28;20900;-63
2023/08/03 04:58:40;;;;;;;24.07;9.43;;;;;;;;;;5069441;28;20107;-63
2023/08/03 05:01:06;;;;;;;27.57;9.30;;;;;;;;;;5069363;28;20102;-63
2023/08/03 05:03:32;;;;;;;23.67;9.70;;;;;;;;;;5068918;28;20094;-63
2023/08/03 05:05:58;;;;;;;24.03;8.50;;;;;;;;;;5069538;28;20041;-63
2023/08/03 05:08:24;;;;;;;18.53;8.53;;;;;;;;;;5069230;28;20051;-63
2023/08/03 05:10:50;;;;;;;19.77;9.00;;;;;;;;;;5069399;28;20044;-63
2023/08/03 05:13:17;;;;;;;18.87;9.00;;;;;;;;;;5069096;28;20053;-63
2023/08/03 05:15:44;;;;;;;21.17;8.70;;;;;;;;;;5069386;28;20052;-63
2023/08/03 05:18:10;;;;;;;20.47;8.60;;;;;;;;;;5068882;28;20109;-63
2023/08/03 05:20:36;;;;;;;19.37;8.43;;;;;;;;;;5068878;28;20493;-63
2023/08/03 05:23:04;;;;;;;25.40;10.40;;;;;;;;;;5069163;28;20044;-63
2023/08/03 05:25:30;;;;;;;19.40;8.93;;;;;;;;;;5068679;28;20036;-63
2023/08/03 05:27:56;;;;;;;19.40;8.87;;;;;;;;;;5068772;28;20052;-63
2023/08/03 05:30:22;;;;;;;18.37;8.00;;;;;;;;;;5068917;28;20036;-63
2023/08/03 05:32:48;;;;;;;23.53;8.17;;;;;;;;;;5068831;28;20074;-63
2023/08/03 05:35:14;;;;;;;17.80;8.37;;;;;;;;;;5068153;28;20370;-63
2023/08/03 05:37:41;;;;;;;16.13;8.73;;;;;;;;;;5068719;28;20044;-63
2023/08/03 05:40:07;;;;;;;17.60;9.67;;;;;;;;;;5068696;28;20048;-63
2023/08/03 05:42:37;;;;;;;22.97;9.73;;;;;;;;;;5068623;28;20132;-63
2023/08/03 05:45:26;;;;;;;19.80;9.33;;;;;;;;;;5068193;28;20438;-63
2023/08/03 05:47:52;;;;;;;24.73;9.50;;;;;;;;;;5065223;28;20052;-63
2023/08/03 05:50:19;;;;;;;17.03;8.80;;;;;;;;;;5068247;28;20099;-63
2023/08/03 05:52:45;;;;;;;17.43;8.90;;;;;;;;;;5068329;28;20449;-63
2023/08/03 05:55:12;;;;;;;23.30;10.93;;;;;;;;;;5068181;28;20102;-63
2023/08/03 05:57:38;;;;;;;25.83;10.17;;;;;;;;;;5068372;28;20564;-63
2023/08/03 06:00:13;;;;;;;26.73;10.13;;;;;;;;;;5067942;28;20102;-62
2023/08/03 06:02:39;;;;;;;25.90;10.97;;;;;;;;;;5068117;28;20080;-63
2023/08/03 06:05:06;;;;;;;17.03;10.80;;;;;;;;;;5068127;28;20067;-63
2023/08/03 06:07:32;;;;;;;20.90;10.73;;;;;;;;;;5068220;28;20040;-63
2023/08/03 06:09:58;;;;;;;28.33;10.77;;;;;;;;;;5068110;28;20414;-63
2023/08/03 06:12:24;;;;;;;24.60;11.80;;;;;;;;;;5067918;28;20059;-63
2023/08/03 06:14:50;;;;;;;23.13;12.43;;;;;;;;;;5067031;28;20048;-63
2023/08/03 06:17:21;;;;;;;22.40;10.57;;;;;;;;;;5067543;28;20047;-63
2023/08/03 06:19:47;;;;;;;25.03;11.23;;;;;;;;;;5067822;28;20041;-63
2023/08/03 06:22:17;;;;;;;23.10;11.37;;;;;;;;;;5068114;28;20490;-63
2023/08/03 06:24:43;;;;;;;20.67;11.00;;;;;;;;;;5067963;28;20041;-63
2023/08/03 06:27:12;;;;;;;24.23;11.97;;;;;;;;;;5067716;28;20044;-63
2023/08/03 06:29:38;;;;;;;21.27;11.60;;;;;;;;;;5068004;28;20470;-63
2023/08/03 06:32:05;;;;;;;31.87;12.63;;;;;;;;;;5067408;28;21165;-63
2023/08/03 06:34:33;;;;;;;21.10;9.83;;;;;;;;;;5067802;28;20083;-63
2023/08/03 06:36:59;;;;;;;20.83;10.60;;;;;;;;;;5067755;28;20630;-63
2023/08/03 06:39:25;;;;;;;22.33;9.93;;;;;;;;;;5067197;28;20205;-63
2023/08/03 06:41:51;;;;;;;23.30;9.50;;;;;;;;;;5067961;28;20155;-63
2023/08/03 06:44:18;;;;;;;20.07;10.10;;;;;;;;;;5067579;28;20080;-63
2023/08/03 06:46:44;;;;;;;21.93;10.20;;;;;;;;;;5067715;28;20052;-63
2023/08/03 06:49:10;;;;;;;17.20;8.50;;;;;;;;;;5067713;28;20052;-63
2023/08/03 06:51:38;;;;;;;21.80;8.70;;;;;;;;;;5067858;28;20056;-63
2023/08/03 06:54:04;;;;;;;19.60;9.27;;;;;;;;;;5067148;28;20550;-63
2023/08/03 06:56:31;;;;;;;21.17;11.13;;;;;;;;;;5066198;28;20421;-63
2023/08/03 06:58:57;;;;;;;18.67;7.50;;;;;;;;;;5067533;28;20045;-64
2023/08/03 07:01:24;;;;;;;16.00;7.10;;;;;;;;;;5067085;28;20048;-63
2023/08/03 07:03:50;;;;;;;13.57;6.77;;;;;;;;;;5067702;28;20056;-63
2023/08/03 07:06:16;;;;;;;14.63;5.83;;;;;;;;;;5067508;28;20048;-63
2023/08/03 07:08:42;;;;;;;17.80;6.50;;;;;;;;;;5067785;28;20094;-63
2023/08/03 07:11:08;;;;;;;18.43;6.93;;;;;;;;;;5067256;28;20393;-63
2023/08/03 07:13:34;;;;;;;14.37;6.00;;;;;;;;;;5070787;28;20044;-63
2023/08/03 07:16:07;;;;;;;18.57;5.50;;;;;;;;;;5071320;28;20048;-63
2023/08/03 07:18:33;;;;;;;12.07;6.03;;;;;;;;;;5071592;28;20489;-63
2023/08/03 07:21:03;;;;;;;12.93;6.40;;;;;;;;;;5070516;28;20392;-63
2023/08/03 07:23:29;;;;;;;13.00;5.90;;;;;;;;;;5070864;28;20048;-63
2023/08/03 07:25:55;;;;;;;15.10;6.00;;;;;;;;;;5069587;28;20408;-63
2023/08/03 07:28:21;;;;;;;14.83;5.40;;;;;;;;;;5071641;28;20452;-63
2023/08/03 07:30:47;;;;;;;13.20;5.03;;;;;;;;;;5071060;28;20041;-63
2023/08/03 07:33:13;;;;;;;16.67;4.60;;;;;;;;;;5070265;28;20048;-63
2023/08/03 07:35:39;;;;;;;12.40;4.13;;;;;;;;;;5071167;28;20041;-63
2023/08/03 07:38:06;;;;;;;8.40;3.20;;;;;;;;;;5070910;28;20524;-63
2023/08/03 07:40:32;;;;;;;10.97;4.17;;;;;;;;;;5070757;28;20056;-64
2023/08/03 07:42:58;;;;;;;10.70;4.03;;;;;;;;;;5070495;28;20051;-63
2023/08/03 07:45:24;;;;;;;10.63;3.70;;;;;;;;;;5070874;28;20147;-63
2023/08/03 07:47:50;;;;;;;6.63;2.80;;;;;;;;;;5070648;28;20087;-64
2023/08/03 07:50:16;;;;;;;12.93;3.00;;;;;;;;;;5070347;28;20076;-63
2023/08/03 07:52:42;;;;;;;14.80;3.60;;;;;;;;;;5070545;28;20044;-63
2023/08/03 07:55:08;;;;;;;13.53;2.67;;;;;;;;;;5070396;28;20489;-63
2023/08/03 07:57:35;;;;;;;13.57;2.37;;;;;;;;;;5070575;28;20044;-64
2023/08/03 08:00:03;;;;;;;9.53;2.53;;;;;;;;;;5070486;28;20466;-64
2023/08/03 08:02:29;;;;;;;9.73;3.27;;;;;;;;;;5070521;28;20059;-63
2023/08/03 08:04:55;;;;;;;8.80;2.50;;;;;;;;;;5069720;28;20133;-64
2023/08/03 08:07:22;;;;;;;7.40;2.20;;;;;;;;;;5070667;28;20133;-64
2023/08/03 08:09:48;;;;;;;10.20;1.93;;;;;;;;;;5070536;28;20099;-63
2023/08/03 08:12:15;;;;;;;8.10;1.70;;;;;;;;;;5070294;28;20036;-64
2023/08/03 08:14:41;;;;;;;7.30;1.70;;;;;;;;;;5069960;28;20127;-64
2023/08/03 08:17:07;;;;;;;7.37;1.80;;;;;;;;;;5070117;28;20051;-64
2023/08/03 08:19:33;;;;;;;5.43;1.40;;;;;;;;;;5070009;28;20079;-64
2023/08/03 08:21:59;;;;;;;4.70;1.40;;;;;;;;;;5069946;28;20048;-64
2023/08/03 08:24:25;;;;;;;7.07;1.60;;;;;;;;;;5069989;28;20048;-64
2023/08/03 08:26:51;;;;;;;8.87;1.83;;;;;;;;;;5069418;28;20414;-64
2023/08/03 08:29:17;;;;;;;9.20;1.30;;;;;;;;;;5069802;28;20124;-64
2023/08/03 08:31:43;;;;;;;8.17;1.40;;;;;;;;;;5069793;28;20547;-64
2023/08/03 08:34:09;;;;;;;7.97;1.50;;;;;;;;;;5069839;28;20040;-64
2023/08/03 08:36:35;;;;;;;8.10;1.43;;;;;;;;;;5069701;28;20047;-64
2023/08/03 08:39:01;;;;;;;4.27;1.10;;;;;;;;;;5069681;28;20056;-64
2023/08/03 08:41:27;;;;;;;7.67;1.30;;;;;;;;;;5069337;28;20479;-64
2023/08/03 08:43:53;;;;;;;5.50;1.33;;;;;;;;;;5069756;28;20095;-64
2023/08/03 08:46:19;;;;;;;5.33;1.30;;;;;;;;;;5069311;28;20422;-64
2023/08/03 08:48:45;;;;;;;4.83;1.07;;;;;;;;;;5069579;28;20517;-64
2023/08/03 08:51:12;;;;;;;8.17;1.77;;;;;;;;;;5069339;28;20068;-64
2023/08/03 08:53:38;;;;;;;5.20;1.60;;;;;;;;;;5067830;28;20545;-64
2023/08/03 08:56:04;;;;;;;4.13;1.07;;;;;;;;;;5069537;28;20161;-64
2023/08/03 08:58:30;;;;;;;6.20;1.37;;;;;;;;;;5069540;28;20454;-63
2023/08/03 09:01:03;;;;;;;7.00;1.43;;;;;;;;;;5069368;28;20535;-63
2023/08/03 09:03:45;;;;;;;5.25;1.02;;;;;;;;;;5068696;28;20043;-63
2023/08/03 09:06:11;;;;;;;8.33;1.07;;;;;;;;;;5069368;28;20096;-64
2023/08/03 09:08:58;;;;;;;3.47;1.00;;;;;;;;;;5069323;28;20048;-63
2023/08/03 09:11:37;;;;;;;4.43;1.27;;;;;;;;;;5069045;28;20422;-64
2023/08/03 09:14:07;;;;;;;4.23;1.10;;;;;;;;;;5068564;28;20101;-63
2023/08/03 09:16:33;;;;;;;5.63;1.23;;;;;;;;;;5069443;28;20133;-63
2023/08/03 09:18:59;;;;;;;4.67;1.17;;;;;;;;;;5069323;28;20080;-63
2023/08/03 09:21:26;;;;;;;3.53;0.90;;;;;;;;;;5068802;28;20040;-63
2023/08/03 09:23:52;;;;;;;2.63;0.90;;;;;;;;;;5068365;28;20075;-63
2023/08/03 09:26:22;;;;;;;4.20;1.03;;;;;;;;;;5068757;28;20044;-63
2023/08/03 09:28:48;;;;;;;3.93;0.90;;;;;;;;;;5069311;28;20153;-63
2023/08/03 09:31:20;;;;;;;3.00;0.97;;;;;;;;;;5068693;28;20793;-63
2023/08/03 09:33:54;;;;;;;2.92;0.85;;;;;;;;;;5068422;28;20044;-62
2023/08/03 09:36:20;;;;;;;3.23;0.90;;;;;;;;;;5067986;28;20051;-62
2023/08/03 09:38:46;;;;;;;2.70;0.87;;;;;;;;;;5068366;28;20487;-62
2023/08/03 09:41:12;;;;;;;6.13;1.70;;;;;;;;;;5068564;28;20127;-62
2023/08/03 09:43:41;;;;;;;6.63;1.63;;;;;;;;;;5067926;28;20041;-62
2023/08/03 09:46:07;;;;;;;6.27;1.33;;;;;;;;;;5068369;28;20055;-62
2023/08/03 09:48:33;;;;;;;4.15;0.98;;;;;;;;;;5068432;28;20040;-62
2023/08/03 09:50:59;;;;;;;5.10;0.90;;;;;;;;;;5068454;28;20041;-61
2023/08/03 09:53:36;;;;;;;4.93;1.10;;;;;;;;;;5068084;28;20498;-61
2023/08/03 09:56:03;;;;;;;3.90;1.10;;;;;;;;;;5068248;28;20044;-61
2023/08/03 09:58:36;;;;;;;4.60;1.40;;;;;;;;;;5067549;28;20045;-61
2023/08/03 10:01:03;;;;;;;8.53;1.30;;;;;;;;;;5068059;28;20422;-61
2023/08/03 10:03:30;;;;;;;4.27;1.10;;;;;;;;;;5068075;28;20041;-62
2023/08/03 10:06:04;;;;;;;5.63;1.10;;;;;;;;;;5068393;28;20045;-61
2023/08/03 10:08:39;;;;;;;6.40;1.13;;;;;;;;;;5067779;28;20056;-61
2023/08/03 10:11:06;;;;;;;4.45;1.00;;;;;;;;;;5068207;28;20051;-61
2023/08/03 10:13:37;;;;;;;4.40;1.10;;;;;;;;;;5068354;28;20101;-61
2023/08/03 10:16:04;;;;;;;5.45;1.48;;;;;;;;;;5068162;28;20139;-61
2023/08/03 10:18:31;;;;;;;5.50;1.33;;;;;;;;;;5067844;28;20052;-61
2023/08/03 10:20:58;;;;;;;4.22;1.30;;;;;;;;;;5067065;28;20517;-61
2023/08/03 10:23:23;;;;;;;5.47;1.10;;;;;;;;;;5068115;28;20076;-61
2023/08/03 10:25:54;;;;;;;7.40;1.48;;;;;;;;;;5067924;28;20170;-61
2023/08/03 10:28:20;;;;;;;4.13;1.20;;;;;;;;;;5067643;28;20041;-61
2023/08/03 10:31:05;;;;;;;5.57;1.58;;;;;;;;;;5067892;28;20041;-61
2023/08/03 10:33:46;;;;;;;3.88;1.48;;;;;;;;;;5067322;28;20476;-60
2023/08/03 10:36:31;;;;;;;5.97;1.50;;;;;;;;;;5067583;28;20049;-60
2023/08/03 10:39:18;;;;;;;5.40;1.25;;;;;;;;;;5067876;28;20056;-61
2023/08/03 10:41:52;;;;;;;5.38;1.27;;;;;;;;;;5067534;28;20048;-61
2023/08/03 10:44:20;;;;;;;5.83;1.40;;;;;;;;;;5066949;28;20080;-61
2023/08/03 10:46:50;;;;;;;6.20;1.15;;;;;;;;;;5067958;28;20045;-60
2023/08/03 10:49:22;;;;;;;7.50;1.33;;;;;;;;;;5071572;28;20041;-61
2023/08/03 10:51:48;;;;;;;;;;;;;;;;;;5071835;28;20055;-61
2023/08/03 10:54:15;;;;;;;2.60;1.00;;;;;;;;;;5071528;28;19920;-60
2023/08/03 10:56:41;;;;;;;5.65;1.65;;;;;;;;;;5071740;28;20529;-61
2023/08/03 10:59:06;;;;;;;5.45;1.48;;;;;;;;;;5071693;28;20087;-60
2023/08/03 11:01:32;;;;;;;4.30;1.15;;;;;;;;;;5071458;28;20418;-61
2023/08/03 11:03:59;;;;;;;5.07;0.90;;;;;;;;;;5071420;28;20162;-60
2023/08/03 11:06:27;;;;;;;3.33;0.75;;;;;;;;;;5071432;28;20581;-60
2023/08/03 11:08:54;;;;;;;4.47;0.90;;;;;;;;;;5071494;28;20047;-61
2023/08/03 11:11:32;;;;;;;5.15;0.93;;;;;;;;;;5071491;28;20044;-60
2023/08/03 11:13:58;;;;;;;4.32;1.05;;;;;;;;;;5071140;28;20059;-61
2023/08/03 11:16:24;;;;;;;3.58;1.00;;;;;;;;;;5071483;28;20044;-60
2023/08/03 11:18:50;;;;;;;3.58;0.85;;;;;;;;;;5071383;28;20059;-60
2023/08/03 11:21:16;;;;;;;4.60;1.23;;;;;;;;;;5070962;28;20053;-61
2023/08/03 11:23:42;;;;;;;4.43;1.00;;;;;;;;;;5071103;28;20048;-61
2023/08/03 11:26:09;;;;;;;3.88;1.10;;;;;;;;;;5070539;28;20072;-61
2023/08/03 11:28:42;;;;;;;4.43;1.00;;;;;;;;;;5071194;28;20052;-61
2023/08/03 11:31:18;;;;;;;7.68;1.27;;;;;;;;;;5070917;28;20221;-60
2023/08/03 11:33:50;;;;;;;4.78;1.35;;;;;;;;;;5070650;28;20048;-61
2023/08/03 11:36:17;;;;;;;3.70;0.98;;;;;;;;;;5071037;28;20044;-61
2023/08/03 11:38:44;;;;;;;4.55;1.30;;;;;;;;;;5070894;28;20056;-61
2023/08/03 11:41:10;;;;;;;5.13;1.42;;;;;;;;;;5070485;28;20583;-60
2023/08/03 11:43:36;;;;;;;4.00;1.10;;;;;;;;;;5070875;28;20052;-61
2023/08/03 11:46:02;;;;;;;7.00;1.73;;;;;;;;;;5070869;28;20502;-60
2023/08/03 11:48:30;;;;;;;5.72;1.70;;;;;;;;;;5070128;28;20044;-61
2023/08/03 11:50:56;;;;;;;5.00;1.42;;;;;;;;;;5070850;28;20569;-61
2023/08/03 11:53:26;;;;;;;7.15;1.92;;;;;;;;;;5070893;28;20131;-61
2023/08/03 11:55:52;;;;;;;5.68;1.70;;;;;;;;;;5070305;28;20119;-61
2023/08/03 11:58:24;;;;;;;7.75;1.67;;;;;;;;;;5069872;28;20041;-61
2023/08/03 12:00:57;;;;;;;7.40;1.48;;;;;;;;;;5070428;28;20048;-61
2023/08/03 12:03:33;;;;;;;7.82;2.03;;;;;;;;;;5069964;28;20052;-61
2023/08/03 12:06:05;;;;;;;6.78;1.70;;;;;;;;;;5070384;28;20051;-61
2023/08/03 12:08:31;;;;;;;9.45;1.60;;;;;;;;;;5070282;28;20056;-61
2023/08/03 12:10:58;;;;;;;7.75;1.65;;;;;;;;;;5070648;28;20071;-61
2023/08/03 12:13:24;;;;;;;6.40;1.50;;;;;;;;;;5069899;28;20040;-61
2023/08/03 12:15:50;;;;;;;6.75;2.00;;;;;;;;;;5070284;28;20044;-61
2023/08/03 12:18:16;;;;;;;5.47;1.40;;;;;;;;;;5069988;28;20439;-61
2023/08/03 12:20:42;;;;;;;7.20;1.60;;;;;;;;;;5070880;28;20076;-61
2023/08/03 12:23:08;;;;;;;5.43;1.40;;;;;;;;;;5070520;28;20037;-61
2023/08/03 12:25:34;;;;;;;7.63;1.65;;;;;;;;;;5070528;28;20048;-61
2023/08/03 12:28:00;;;;;;;9.32;1.77;;;;;;;;;;5070759;28;20044;-61
2023/08/03 12:30:26;;;;;;;5.15;1.92;;;;;;;;;;5070603;28;20056;-61
2023/08/03 12:32:52;;;;;;;6.88;1.98;;;;;;;;;;5069790;28;20040;-61
2023/08/03 12:35:18;;;;;;;7.22;1.70;;;;;;;;;;5070442;28;20060;-61
2023/08/03 12:37:45;;;;;;;6.20;1.98;;;;;;;;;;5070566;28;20491;-61
2023/08/03 12:40:11;;;;;;;8.80;2.03;;;;;;;;;;5069594;28;20083;-61
2023/08/03 12:42:37;;;;;;;5.45;1.55;;;;;;;;;;5070534;28;20045;-61
2023/08/03 12:45:03;;;;;;;6.00;1.50;;;;;;;;;;5070132;28;20521;-61
2023/08/03 12:47:29;;;;;;;6.30;1.75;;;;;;;;;;5070012;28;20040;-61
2023/08/03 12:49:58;;;;;;;5.57;1.58;;;;;;;;;;5069794;28;20347;-61
2023/08/03 12:52:25;;;;;;;6.40;1.40;;;;;;;;;;5070034;28;20049;-60
2023/08/03 12:54:51;;;;;;;7.20;1.35;;;;;;;;;;5069801;28;20611;-61
2023/08/03 12:57:17;;;;;;;3.65;1.00;;;;;;;;;;5070080;28;20056;-61
2023/08/03 12:59:43;;;;;;;3.70;1.10;;;;;;;;;;5069989;28;20041;-61
2023/08/03 13:02:09;;;;;;;7.65;0.95;;;;;;;;;;5069767;28;20067;-61
2023/08/03 13:04:35;;;;;;;6.70;1.50;;;;;;;;;;5069633;28;20049;-61
2023/08/03 13:07:01;;;;;;;4.85;1.10;;;;;;;;;;5069764;28;20117;-61
2023/08/03 13:09:27;;;;;;;5.95;1.35;;;;;;;;;;5069075;28;20452;-61
2023/08/03 13:11:53;;;;;;;4.75;1.23;;;;;;;;;;5069653;28;20067;-61
2023/08/03 13:14:19;;;;;;;4.63;1.20;;;;;;;;;;5069636;28;20041;-61
2023/08/03 13:16:47;;;;;;;6.32;2.13;;;;;;;;;;5067874;28;20048;-61
2023/08/03 13:19:14;;;;;;;3.65;1.20;;;;;;;;;;5069459;28;20414;-62
2023/08/03 13:21:40;;;;;;;3.88;0.98;;;;;;;;;;5069580;28;20075;-61
2023/08/03 13:24:06;;;;;;;6.30;1.80;;;;;;;;;;5069646;28;20499;-61
2023/08/03 13:26:32;;;;;;;6.85;1.33;;;;;;;;;;5069226;28;20090;-62
2023/08/03 13:28:58;;;;;;;8.23;1.60;;;;;;;;;;5069117;28;20052;-61
2023/08/03 13:31:24;;;;;;;5.13;1.45;;;;;;;;;;5069763;28;20545;-61
2023/08/03 13:33:51;;;;;;;6.90;1.67;;;;;;;;;;5069476;28;20045;-61
2023/08/03 13:36:17;;;;;;;6.22;1.38;;;;;;;;;;5069225;28;20070;-61
2023/08/03 13:38:43;;;;;;;3.10;1.00;;;;;;;;;;5068902;28;20471;-61
2023/08/03 13:41:09;;;;;;;4.70;1.05;;;;;;;;;;5069674;28;20048;-61
2023/08/03 13:43:37;;;;;;;3.60;1.10;;;;;;;;;;5069038;28;20067;-62
2023/08/03 13:46:03;;;;;;;4.82;1.25;;;;;;;;;;5069231;28;20056;-61
2023/08/03 13:48:29;;;;;;;8.13;1.73;;;;;;;;;;5068478;28;20047;-61
2023/08/03 13:50:57;;;;;;;9.45;2.08;;;;;;;;;;5069017;28;20048;-61
2023/08/03 13:53:23;;;;;;;6.05;2.40;;;;;;;;;;5069162;28;20041;-61
2023/08/03 13:55:48;;;;;;;6.32;1.80;;;;;;;;;;5069380;28;20045;-61
2023/08/03 13:58:14;;;;;;;7.65;1.92;;;;;;;;;;5068799;28;20048;-61
2023/08/03 14:00:41;;;;;;;5.25;1.92;;;;;;;;;;5069110;28;20090;-61
2023/08/03 14:03:07;;;;;;;7.85;2.30;;;;;;;;;;5068406;28;20075;-61
2023/08/03 14:05:33;;;;;;;9.13;2.78;;;;;;;;;;5068883;28;20040;-61
2023/08/03 14:07:59;;;;;;;9.32;2.40;;;;;;;;;;5068941;28;20056;-61
2023/08/03 14:10:25;;;;;;;11.02;3.60;;;;;;;;;;5068761;28;20047;-61
2023/08/03 14:12:52;;;;;;;11.50;3.55;;;;;;;;;;5068798;28;20040;-61
2023/08/03 14:15:18;;;;;;;11.27;2.70;;;;;;;;;;5068729;28;20146;-61
2023/08/03 14:17:44;;;;;;;9.33;2.93;;;;;;;;;;5068490;28;20414;-61
2023/08/03 14:20:10;;;;;;;12.03;3.47;;;;;;;;;;5068535;28;20041;-61
2023/08/03 14:22:36;;;;;;;13.17;3.00;;;;;;;;;;5068109;28;20439;-60
2023/08/03 14:25:03;;;;;;;12.70;2.73;;;;;;;;;;5068791;28;20045;-61
2023/08/03 14:27:29;;;;;;;14.73;3.67;;;;;;;;;;5068521;28;20070;-61
2023/08/03 14:29:55;;;;;;;9.40;2.80;;;;;;;;;;5068069;28;20049;-61
2023/08/03 14:32:21;;;;;;;8.00;2.40;;;;;;;;;;5068292;28;20579;-61
2023/08/03 14:34:47;;;;;;;14.97;3.13;;;;;;;;;;5068722;28;20091;-61